createdAt,value
2022-11-29T00:03:47.260Z,98643.50
2022-11-29T00:09:36.246Z,98640.77
2022-11-29T00:15:39.712Z,98638.38
2022-11-29T00:22:02.010Z,98632.15
2022-11-29T00:27:49.825Z,98628.54
2022-11-29T00:33:12.355Z,98631.08
2022-11-29T00:39:13.862Z,98631.33
2022-11-29T00:44:37.704Z,98632.04
2022-11-29T00:50:08.611Z,98633.92
2022-11-29T00:55:50.027Z,98630.21
2022-11-29T01:01:13.294Z,98624.48
2022-11-29T01:06:56.443Z,98621.27
2022-11-29T01:13:18.830Z,98621.10
2022-11-29T01:19:16.592Z,98618.67
2022-11-29T01:25:03.752Z,98617.43
2022-11-29T01:30:33.450Z,98616.30
2022-11-29T01:36:33.160Z,98606.02
2022-11-29T01:42:00.872Z,98611.50
2022-11-29T01:47:25.375Z,98610.39
2022-11-29T01:52:56.656Z,98608.96
2022-11-29T01:58:23.205Z,98605.94
2022-11-29T02:03:47.249Z,98606.20
2022-11-29T02:09:36.832Z,98603.70
2022-11-29T02:15:57.993Z,98617.48
2022-11-29T02:21:38.485Z,98621.96
2022-11-29T02:27:41.177Z,98626.13
2022-11-29T02:33:35.944Z,98632.14
2022-11-29T02:39:49.375Z,98629.90
2022-11-29T02:45:26.372Z,98630.98
2022-11-29T02:51:27.788Z,98633.84
2022-11-29T02:57:05.128Z,98636.54
2022-11-29T03:02:51.940Z,98645.21
2022-11-29T03:09:02.996Z,98646.98
2022-11-29T03:15:43.195Z,98646.70
2022-11-29T03:22:12.150Z,98652.45
2022-11-29T03:28:08.974Z,98647.41
2022-11-29T03:34:12.361Z,98651.06
2022-11-29T03:40:10.237Z,98651.21
2022-11-29T03:46:05.857Z,98659.41
2022-11-29T03:51:49.921Z,98654.08
2022-11-29T03:57:19.484Z,98656.27
2022-11-29T04:03:31.838Z,98664.93
2022-11-29T04:09:48.818Z,98667.04
2022-11-29T04:15:34.776Z,98665.27
2022-11-29T04:21:50.012Z,98672.86
2022-11-29T04:27:49.703Z,98680.71
2022-11-29T04:33:59.766Z,98676.48
2022-11-29T04:40:16.997Z,98676.23
2022-11-29T04:46:18.028Z,98683.88
2022-11-29T04:59:51.750Z,98692.17
2022-11-29T05:06:10.917Z,98704.86
2022-11-29T06:03:37.502Z,98739.81
2022-11-29T06:09:11.343Z,98744.75
2022-11-29T06:15:54.530Z,98756.54
2022-11-29T06:22:07.019Z,98760.65
2022-11-29T06:28:44.463Z,98763.69
2022-11-29T06:35:38.506Z,98766.78
2022-11-29T07:08:29.136Z,98779.14
2022-11-29T07:22:10.779Z,98788.31
2022-11-29T07:29:03.339Z,98800.77
2022-11-29T07:35:50.134Z,98805.03
2022-11-29T07:42:59.948Z,98812.11
2022-11-29T07:49:45.007Z,98815.02
2022-11-29T07:56:29.073Z,98815.09
2022-11-29T08:03:13.800Z,98814.98
2022-11-29T08:10:01.848Z,98815.63
2022-11-29T08:16:44.658Z,98819.45
2022-11-29T08:23:27.575Z,98820.39
2022-11-29T08:30:09.573Z,98824.97
2022-11-29T08:36:34.220Z,98824.97
2022-11-29T08:42:58.226Z,98830.92
2022-11-29T08:49:40.915Z,98832.89
2022-11-29T08:56:31.719Z,98836.66
2022-11-29T09:03:11.336Z,98833.20
2022-11-29T09:10:00.044Z,98829.09
2022-11-29T09:16:43.242Z,98826.71
2022-11-29T09:23:26.049Z,98830.13
2022-11-29T09:29:50.374Z,98830.33
2022-11-29T09:36:36.547Z,98828.70
2022-11-29T09:43:41.451Z,98828.48
2022-11-29T09:50:29.830Z,98829.23
2022-11-29T09:56:41.321Z,98827.27
2022-11-29T10:03:44.328Z,98822.48
2022-11-29T10:10:30.084Z,98826.58
2022-11-29T10:17:24.386Z,98826.17
2022-11-29T10:24:32.318Z,98822.72
2022-11-29T10:39:14.907Z,98817.18
2022-11-29T10:46:01.983Z,98813.33
2022-11-29T10:53:02.138Z,98814.45
2022-11-29T11:00:03.649Z,98809.19
2022-11-29T11:06:47.813Z,98806.52
2022-11-29T11:27:07.241Z,98806.92
2022-11-29T11:33:45.215Z,98813.78
2022-11-29T11:40:27.600Z,98817.48
2022-11-29T11:46:53.428Z,98818.46
2022-11-29T11:53:28.347Z,98813.61
2022-11-29T12:00:00.755Z,98813.61
2022-11-29T12:06:45.567Z,98807.40
2022-11-29T12:12:33.589Z,98811.90
2022-11-29T12:18:26.016Z,98813.57
2022-11-29T12:24:05.273Z,98820.33
2022-11-29T12:29:32.272Z,98818.25
2022-11-29T12:35:22.349Z,98817.70
2022-11-29T12:41:07.737Z,98820.09
2022-11-29T12:46:31.537Z,98820.64
2022-11-29T12:52:21.542Z,98821.98
2022-11-29T12:58:22.736Z,98825.84
2022-11-29T13:04:34.962Z,98828.50
2022-11-29T13:10:18.435Z,98831.13
2022-11-29T13:16:23.948Z,98836.80
2022-11-29T13:21:57.012Z,98834.68
2022-11-29T13:27:25.639Z,98841.00
2022-11-29T13:33:13.073Z,98838.56
2022-11-29T13:38:46.094Z,98845.69
2022-11-29T13:44:30.773Z,98843.05
2022-11-29T13:50:31.471Z,98836.79
2022-11-29T13:56:02.924Z,98842.60
2022-11-29T14:01:27.081Z,98841.50
2022-11-29T14:06:50.919Z,98844.51
2022-11-29T14:12:49.608Z,98844.11
2022-11-29T14:19:18.228Z,98848.62
2022-11-29T14:25:11.774Z,98852.39
2022-11-29T14:31:45.622Z,98853.64
2022-11-29T14:38:33.916Z,98855.78
2022-11-29T14:44:28.229Z,98865.10
2022-11-29T14:50:29.720Z,98864.80
2022-11-29T14:55:51.736Z,98868.23
2022-11-29T15:01:18.574Z,98869.99
2022-11-29T15:06:47.463Z,98874.98
2022-11-29T15:13:16.427Z,98883.06
2022-11-29T15:20:06.396Z,98890.56
2022-11-29T15:26:37.524Z,98897.98
2022-11-29T15:32:33.896Z,98898.47
2022-11-29T15:37:57.213Z,98900.02
2022-11-29T15:43:36.921Z,98903.94
2022-11-29T15:49:18.409Z,98908.44
2022-11-29T15:54:47.543Z,98909.02
2022-11-29T16:00:38.389Z,98910.98
2022-11-29T16:06:32.101Z,98917.52
2022-11-29T16:12:54.337Z,98921.11
2022-11-29T16:19:37.399Z,98923.73
2022-11-29T16:25:16.699Z,98939.23
2022-11-29T16:30:42.331Z,98942.61
2022-11-29T16:36:17.891Z,98943.87
2022-11-29T16:41:39.805Z,98946.11
2022-11-29T16:47:18.018Z,98955.06
2022-11-29T16:52:42.109Z,98955.60
2022-11-29T16:58:25.149Z,98961.02
2022-11-29T17:03:50.355Z,98957.83
2022-11-29T17:09:25.181Z,98964.89
2022-11-29T17:14:48.848Z,98962.39
2022-11-29T17:21:00.180Z,98960.79
2022-11-29T17:27:23.646Z,98964.59
2022-11-29T17:33:00.935Z,98967.39
2022-11-29T17:39:44.204Z,98963.90
2022-11-29T17:46:26.398Z,98967.53
2022-11-29T17:51:52.974Z,98971.29
2022-11-29T17:57:43.797Z,98974.02
2022-11-29T18:04:07.857Z,98975.40
2022-11-29T18:10:50.818Z,98977.89
2022-11-29T18:17:33.361Z,98986.29
2022-11-29T18:24:16.465Z,98987.43
2022-11-29T18:31:00.750Z,98994.79
2022-11-29T18:36:46.629Z,98994.71
2022-11-29T18:43:13.956Z,98995.02
2022-11-29T18:50:02.025Z,99014.21
2022-11-29T18:56:53.052Z,99014.91
2022-11-29T19:03:36.056Z,99005.96
2022-11-29T19:10:19.162Z,99010.49
2022-11-29T19:17:03.419Z,99014.73
2022-11-29T19:23:47.380Z,99012.35
2022-11-29T19:30:12.454Z,99018.72
2022-11-29T19:35:43.860Z,99028.84
2022-11-29T19:42:14.086Z,99031.51
2022-11-29T19:55:01.106Z,99036.44
2022-11-29T20:01:44.222Z,99032.86
2022-11-29T20:08:27.837Z,99040.63
2022-11-29T20:15:10.590Z,99048.04
2022-11-29T20:21:53.061Z,99053.06
2022-11-29T20:28:36.059Z,99055.07
2022-11-29T20:34:39.293Z,99062.22
2022-11-29T20:41:33.741Z,99057.06
2022-11-29T20:48:25.117Z,99054.45
2022-11-29T20:54:48.298Z,99052.13
2022-11-29T21:00:35.248Z,99053.65
2022-11-29T21:06:22.344Z,99049.34
2022-11-29T21:12:06.686Z,99053.83
2022-11-29T21:18:11.362Z,99049.48
2022-11-29T21:24:35.117Z,99057.55
2022-11-29T21:30:18.535Z,99060.27
2022-11-29T21:35:40.664Z,99065.10
2022-11-29T21:42:03.486Z,99064.45
2022-11-29T21:48:55.821Z,99065.24
2022-11-29T21:55:39.028Z,99071.16
2022-11-29T22:01:22.031Z,99071.33
2022-11-29T22:07:43.973Z,99069.81
2022-11-29T22:14:34.840Z,99071.00
2022-11-29T22:21:34.727Z,99074.55
2022-11-29T22:50:25.648Z,99057.13
2022-11-29T22:56:54.798Z,99067.17
2022-11-29T23:03:05.773Z,99069.26
2022-11-29T23:29:13.404Z,99067.86
2022-11-29T23:35:56.206Z,99064.73
2022-11-29T23:42:19.063Z,99070.80
2022-11-29T23:49:01.440Z,99068.14
2022-11-29T23:55:43.691Z,99073.30
